createdAt,value
2022-07-28T00:01:10.084Z,13.90
2022-07-28T00:03:37.170Z,13.90
2022-07-28T00:06:05.175Z,13.90
2022-07-28T00:08:32.321Z,13.90
2022-07-28T00:10:59.384Z,13.80
2022-07-28T00:13:26.498Z,13.80
2022-07-28T00:15:53.769Z,13.70
2022-07-28T00:18:20.874Z,13.70
2022-07-28T00:20:47.980Z,13.60
2022-07-28T00:23:15.089Z,13.60
2022-07-28T00:25:42.273Z,13.50
2022-07-28T00:28:09.367Z,13.50
2022-07-28T00:30:36.625Z,13.40
2022-07-28T00:33:04.582Z,13.40
2022-07-28T00:35:31.949Z,13.30
2022-07-28T00:38:01.064Z,13.30
2022-07-28T00:40:47.288Z,13.20
2022-07-28T00:43:15.406Z,13.20
2022-07-28T00:45:44.393Z,13.10
2022-07-28T00:48:11.484Z,13.10
2022-07-28T00:50:40.207Z,13.10
2022-07-28T00:53:08.806Z,13.10
2022-07-28T00:56:03.465Z,13.00
2022-07-28T00:58:27.746Z,13.00
2022-07-28T01:00:55.454Z,13.00
2022-07-28T01:03:23.615Z,13.00
2022-07-28T01:05:59.605Z,13.00
2022-07-28T01:08:58.277Z,13.00
2022-07-28T01:11:42.886Z,12.90
2022-07-28T01:14:13.361Z,12.90
2022-07-28T01:17:24.678Z,12.90
2022-07-28T01:20:10.191Z,12.90
2022-07-28T01:22:46.018Z,12.80
2022-07-28T01:25:32.608Z,12.80
2022-07-28T01:28:24.411Z,12.70
2022-07-28T01:30:54.812Z,12.70
2022-07-28T01:33:43.774Z,12.70
2022-07-28T01:36:14.648Z,12.60
2022-07-28T01:38:43.064Z,12.60
2022-07-28T01:41:15.024Z,12.60
2022-07-28T01:43:45.809Z,12.60
2022-07-28T01:46:15.078Z,12.50
2022-07-28T01:48:45.015Z,12.50
2022-07-28T01:51:14.665Z,12.50
2022-07-28T01:53:43.595Z,12.40
2022-07-28T01:56:11.424Z,12.40
2022-07-28T01:58:40.251Z,12.40
2022-07-28T02:01:07.854Z,12.40
2022-07-28T02:03:36.717Z,12.40
2022-07-28T02:06:06.420Z,12.40
2022-07-28T02:08:35.937Z,12.30
2022-07-28T02:11:21.684Z,12.30
2022-07-28T02:13:50.297Z,12.30
2022-07-28T02:16:21.171Z,12.20
2022-07-28T02:18:50.761Z,12.20
2022-07-28T02:21:19.720Z,12.20
2022-07-28T02:23:49.062Z,12.20
2022-07-28T02:26:18.536Z,12.20
2022-07-28T02:28:51.556Z,12.20
2022-07-28T02:31:27.736Z,12.10
2022-07-28T02:34:02.291Z,12.10
2022-07-28T02:36:38.245Z,12.10
2022-07-28T02:39:21.302Z,12.10
2022-07-28T02:41:53.498Z,12.00
2022-07-28T02:44:24.882Z,12.00
2022-07-28T02:46:53.715Z,12.00
2022-07-28T02:49:25.902Z,12.00
2022-07-28T02:51:55.280Z,12.00
2022-07-28T02:54:25.764Z,12.00
2022-07-28T02:56:54.302Z,11.90
2022-07-28T02:59:22.230Z,11.90
2022-07-28T03:01:50.659Z,11.90
2022-07-28T03:04:38.787Z,11.90
2022-07-28T03:07:06.639Z,11.90
2022-07-28T03:09:46.176Z,11.90
2022-07-28T03:12:13.559Z,11.80
2022-07-28T03:14:42.021Z,11.80
2022-07-28T03:17:09.510Z,11.80
2022-07-28T03:19:37.146Z,11.70
2022-07-28T03:22:05.427Z,11.70
2022-07-28T03:24:37.035Z,11.70
2022-07-28T03:27:22.173Z,11.60
2022-07-28T03:29:54.596Z,11.70
2022-07-28T03:32:24.006Z,11.70
2022-07-28T03:34:52.645Z,11.70
2022-07-28T03:37:32.553Z,11.70
2022-07-28T03:40:00.748Z,11.70
2022-07-28T03:42:30.786Z,11.70
2022-07-28T03:44:58.095Z,11.70
2022-07-28T03:47:25.385Z,11.80
2022-07-28T03:49:52.429Z,11.80
2022-07-28T03:52:19.639Z,11.80
2022-07-28T03:54:46.932Z,11.80
2022-07-28T03:57:14.297Z,11.90
2022-07-28T03:59:41.405Z,11.90
2022-07-28T04:02:08.563Z,11.90
2022-07-28T04:04:35.629Z,11.90
2022-07-28T04:07:02.737Z,12.00
2022-07-28T04:09:29.785Z,12.00
2022-07-28T04:11:56.868Z,12.10
2022-07-28T04:14:24.720Z,12.10
2022-07-28T04:16:52.104Z,12.10
2022-07-28T04:19:19.183Z,12.10
2022-07-28T04:21:46.795Z,12.10
2022-07-28T04:24:14.265Z,12.20
2022-07-28T04:26:41.570Z,12.20
2022-07-28T04:29:11.474Z,12.20
2022-07-28T04:31:38.541Z,12.30
2022-07-28T04:34:05.657Z,12.30
2022-07-28T04:36:33.103Z,12.40
2022-07-28T04:39:00.654Z,12.40
2022-07-28T04:41:27.785Z,12.40
2022-07-28T04:43:55.030Z,12.50
2022-07-28T04:46:22.188Z,12.50
2022-07-28T04:48:49.329Z,12.60
2022-07-28T04:51:16.611Z,12.60
2022-07-28T04:53:43.854Z,12.70
2022-07-28T04:56:10.903Z,12.70
2022-07-28T04:58:38.050Z,12.80
2022-07-28T05:01:05.488Z,12.80
2022-07-28T05:03:36.105Z,12.80
2022-07-28T05:06:03.701Z,12.90
2022-07-28T05:08:30.790Z,12.90
2022-07-28T05:10:57.892Z,13.00
2022-07-28T05:13:28.971Z,13.10
2022-07-28T05:15:58.869Z,13.10
2022-07-28T05:18:25.969Z,13.20
2022-07-28T05:20:53.110Z,13.30
2022-07-28T05:23:20.144Z,13.40
2022-07-28T05:25:47.286Z,13.50
2022-07-28T05:28:14.331Z,13.60
2022-07-28T05:30:43.989Z,13.70
2022-07-28T05:33:11.137Z,13.80
2022-07-28T05:35:38.223Z,13.90
2022-07-28T05:38:10.365Z,14.10
2022-07-28T05:40:38.029Z,14.20
2022-07-28T05:43:05.108Z,14.30
2022-07-28T05:45:34.184Z,14.40
2022-07-28T05:48:01.364Z,14.50
2022-07-28T05:50:28.411Z,14.60
2022-07-28T05:52:55.469Z,14.80
2022-07-28T05:55:22.614Z,14.90
2022-07-28T05:57:49.690Z,15.00
2022-07-28T06:00:19.964Z,15.20
2022-07-28T06:02:51.089Z,15.30
2022-07-28T06:05:20.646Z,15.40
2022-07-28T06:07:49.744Z,15.60
2022-07-28T06:10:20.436Z,15.70
2022-07-28T06:12:49.693Z,15.80
2022-07-28T06:15:26.141Z,16.00
2022-07-28T06:17:55.825Z,16.10
2022-07-28T06:20:25.345Z,16.20
2022-07-28T06:22:54.214Z,16.30
2022-07-28T06:25:23.644Z,16.50
2022-07-28T06:27:54.020Z,16.50
2022-07-28T06:30:22.122Z,16.70
2022-07-28T06:32:50.290Z,16.80
2022-07-28T06:35:18.657Z,16.90
2022-07-28T06:37:50.223Z,17.00
2022-07-28T06:40:18.771Z,17.00
2022-07-28T06:42:46.642Z,17.10
2022-07-28T06:45:20.976Z,17.20
2022-07-28T06:47:52.485Z,17.30
2022-07-28T06:50:27.027Z,17.40
2022-07-28T06:52:58.984Z,17.60
2022-07-28T06:55:34.392Z,17.70
2022-07-28T06:58:02.639Z,17.80
2022-07-28T07:00:30.049Z,17.90
2022-07-28T07:02:57.390Z,18.00
2022-07-28T07:05:26.360Z,18.10
2022-07-28T07:07:53.448Z,18.20
2022-07-28T07:10:20.533Z,18.20
2022-07-28T07:12:47.666Z,18.30
2022-07-28T07:15:14.728Z,18.40
2022-07-28T07:17:42.587Z,18.40
2022-07-28T07:20:10.764Z,18.40
2022-07-28T07:22:47.841Z,18.50
2022-07-28T07:25:17.232Z,18.60
2022-07-28T07:27:45.470Z,18.60
2022-07-28T07:30:14.031Z,18.70
2022-07-28T07:32:41.521Z,18.80
2022-07-28T07:35:08.772Z,18.80
2022-07-28T07:37:35.924Z,18.80
2022-07-28T07:40:05.565Z,18.90
2022-07-28T07:42:32.824Z,19.10
2022-07-28T07:44:59.999Z,19.10
2022-07-28T07:47:27.177Z,19.30
2022-07-28T07:49:54.292Z,19.30
2022-07-28T07:52:21.381Z,19.40
2022-07-28T07:54:48.511Z,19.40
2022-07-28T07:57:15.811Z,19.50
2022-07-28T07:59:42.876Z,19.60
2022-07-28T08:02:10.099Z,19.80
2022-07-28T08:04:39.119Z,19.90
2022-07-28T08:07:07.892Z,19.90
2022-07-28T08:09:35.496Z,19.90
2022-07-28T08:12:03.113Z,19.90
2022-07-28T08:14:30.416Z,20.00
2022-07-28T08:16:59.546Z,20.20
2022-07-28T08:19:26.801Z,20.30
2022-07-28T08:21:55.725Z,20.40
2022-07-28T08:24:33.827Z,20.40
2022-07-28T08:27:04.584Z,20.50
2022-07-28T08:29:31.809Z,20.50
2022-07-28T08:31:59.062Z,20.60
2022-07-28T08:34:28.463Z,20.70
2022-07-28T08:37:02.562Z,20.80
2022-07-28T08:39:31.364Z,20.80
2022-07-28T08:42:27.472Z,21.00
2022-07-28T08:44:58.608Z,21.20
2022-07-28T08:47:40.538Z,21.30
2022-07-28T08:50:16.461Z,21.30
2022-07-28T08:52:46.556Z,21.40
2022-07-28T08:55:19.448Z,21.50
2022-07-28T08:57:46.956Z,21.70
2022-07-28T09:00:14.398Z,21.90
2022-07-28T09:02:46.739Z,22.10
2022-07-28T09:05:23.373Z,22.10
2022-07-28T09:07:54.470Z,22.20
2022-07-28T09:10:22.220Z,22.40
2022-07-28T09:12:49.550Z,22.70
2022-07-28T09:15:16.732Z,23.00
2022-07-28T09:17:43.810Z,23.20
2022-07-28T09:20:12.127Z,23.40
2022-07-28T09:22:57.117Z,23.60
2022-07-28T09:25:24.940Z,23.70
2022-07-28T09:27:52.118Z,23.60
2022-07-28T09:30:31.276Z,23.60
2022-07-28T09:33:41.855Z,23.90
2022-07-28T09:36:13.167Z,24.20
2022-07-28T09:38:41.859Z,24.20
2022-07-28T09:41:09.059Z,24.30
2022-07-28T09:43:42.077Z,24.30
2022-07-28T09:46:12.448Z,24.20
2022-07-28T09:49:00.821Z,24.40
2022-07-28T09:51:30.873Z,24.60
2022-07-28T09:54:10.531Z,24.80
2022-07-28T09:56:39.610Z,24.80
2022-07-28T09:59:08.632Z,24.90
2022-07-28T10:01:55.032Z,25.10
2022-07-28T10:04:37.028Z,25.30
2022-07-28T10:07:05.858Z,25.40
2022-07-28T10:09:33.722Z,25.50
2022-07-28T10:12:20.468Z,25.50
2022-07-28T10:14:50.977Z,25.50
2022-07-28T10:17:25.724Z,25.50
2022-07-28T10:19:55.233Z,25.60
2022-07-28T10:22:25.429Z,25.70
2022-07-28T10:24:53.943Z,25.70
2022-07-28T10:27:24.999Z,25.80
2022-07-28T10:29:59.987Z,25.80
2022-07-28T10:32:29.783Z,25.80
2022-07-28T10:35:04.144Z,25.90
2022-07-28T10:37:36.590Z,26.10
2022-07-28T10:40:10.621Z,26.30
2022-07-28T10:42:40.799Z,26.50
2022-07-28T10:45:11.327Z,26.60
2022-07-28T10:47:38.450Z,26.60
2022-07-28T10:50:06.129Z,26.60
2022-07-28T10:52:47.424Z,26.70
2022-07-28T10:55:32.020Z,26.70
2022-07-28T10:58:26.428Z,26.70
2022-07-28T11:00:58.209Z,26.70
2022-07-28T11:03:43.990Z,26.60
2022-07-28T11:06:28.066Z,26.60
2022-07-28T11:08:56.816Z,26.40
2022-07-28T11:11:42.483Z,26.60
2022-07-28T11:14:26.048Z,26.60
2022-07-28T11:17:13.515Z,26.70
2022-07-28T11:22:34.913Z,27.10
2022-07-28T11:25:18.732Z,27.40
2022-07-28T11:27:52.118Z,27.60
2022-07-28T11:30:19.679Z,27.40
2022-07-28T11:32:55.905Z,27.00
2022-07-28T11:35:24.952Z,26.70
2022-07-28T11:38:03.882Z,26.60
2022-07-28T11:40:38.770Z,26.30
2022-07-28T11:43:37.556Z,26.00
2022-07-28T11:46:09.717Z,25.50
2022-07-28T11:48:39.115Z,25.00
2022-07-28T11:51:06.257Z,24.60
2022-07-28T11:53:42.029Z,24.30
2022-07-28T11:56:14.563Z,24.00
2022-07-28T11:58:42.998Z,23.90
2022-07-28T12:01:21.140Z,24.00
2022-07-28T12:03:56.154Z,23.90
2022-07-28T12:06:28.647Z,23.70
2022-07-28T12:09:02.471Z,23.80
2022-07-28T12:11:38.237Z,24.00
2022-07-28T12:14:14.193Z,24.00
2022-07-28T12:16:44.160Z,24.00
2022-07-28T12:19:14.993Z,23.90
2022-07-28T12:21:56.835Z,23.90
2022-07-28T12:24:45.970Z,23.80
2022-07-28T12:27:16.816Z,23.50
2022-07-28T12:29:47.830Z,23.30
2022-07-28T12:32:17.754Z,23.10
2022-07-28T12:34:45.721Z,23.00
2022-07-28T12:37:14.065Z,22.90
2022-07-28T12:39:43.524Z,22.70
2022-07-28T12:42:12.591Z,22.50
2022-07-28T12:44:43.920Z,22.40
2022-07-28T12:47:12.618Z,22.40
2022-07-28T12:49:41.627Z,22.50
2022-07-28T12:52:25.480Z,22.60
2022-07-28T12:54:55.670Z,22.60
2022-07-28T12:57:50.569Z,22.60
2022-07-28T13:00:27.740Z,22.80
2022-07-28T13:02:56.543Z,22.90
2022-07-28T13:06:03.327Z,22.90
2022-07-28T13:08:46.299Z,22.80
2022-07-28T13:11:42.544Z,22.80
2022-07-28T13:14:02.767Z,22.90
2022-07-28T13:16:30.242Z,23.00
2022-07-28T13:19:00.889Z,23.10
2022-07-28T13:21:57.573Z,23.20
2022-07-28T13:24:27.367Z,23.20
2022-07-28T13:26:54.861Z,23.30
2022-07-28T13:29:22.750Z,23.20
2022-07-28T13:31:50.330Z,23.20
2022-07-28T13:34:17.947Z,23.30
2022-07-28T13:36:45.288Z,23.40
2022-07-28T13:39:14.035Z,23.40
2022-07-28T13:41:57.941Z,23.40
2022-07-28T13:44:29.200Z,23.40
2022-07-28T13:46:58.975Z,23.40
2022-07-28T13:49:27.848Z,23.60
2022-07-28T13:51:55.368Z,23.70
2022-07-28T13:54:23.045Z,23.80
2022-07-28T13:56:51.130Z,24.00
2022-07-28T13:59:18.287Z,24.00
2022-07-28T14:01:49.646Z,24.10
2022-07-28T14:04:18.869Z,24.20
2022-07-28T14:06:48.832Z,24.40
2022-07-28T14:09:18.375Z,24.40
2022-07-28T14:11:50.171Z,24.50
2022-07-28T14:14:24.076Z,24.50
2022-07-28T14:16:54.187Z,24.50
2022-07-28T14:19:39.402Z,24.70
2022-07-28T14:22:13.391Z,24.90
2022-07-28T14:24:42.594Z,25.00
2022-07-28T14:27:10.588Z,25.00
2022-07-28T14:29:38.080Z,25.00
2022-07-28T14:32:05.672Z,24.90
2022-07-28T14:34:32.712Z,24.80
2022-07-28T14:37:05.820Z,24.80
2022-07-28T14:39:37.141Z,24.70
2022-07-28T14:42:05.013Z,24.50
2022-07-28T14:44:32.053Z,24.30
2022-07-28T14:46:59.309Z,24.00
2022-07-28T14:49:26.559Z,23.80
2022-07-28T14:51:56.217Z,23.50
2022-07-28T14:54:23.590Z,23.30
2022-07-28T14:56:50.884Z,23.20
2022-07-28T14:59:18.025Z,23.00
2022-07-28T15:01:45.260Z,23.00
2022-07-28T15:04:16.659Z,23.10
2022-07-28T15:06:44.476Z,23.20
2022-07-28T15:09:11.790Z,23.10
2022-07-28T15:11:39.907Z,22.90
2022-07-28T15:14:07.109Z,22.70
2022-07-28T15:16:34.347Z,22.60
2022-07-28T15:19:02.667Z,22.60
2022-07-28T15:21:34.308Z,22.80
2022-07-28T15:24:04.123Z,22.90
2022-07-28T15:26:31.200Z,23.10
2022-07-28T15:28:58.407Z,23.20
2022-07-28T15:31:26.049Z,23.40
2022-07-28T15:33:57.598Z,23.40
2022-07-28T15:36:25.925Z,23.40
2022-07-28T15:38:54.627Z,23.40
2022-07-28T15:41:22.121Z,23.40
2022-07-28T15:43:49.324Z,23.40
2022-07-28T15:46:16.696Z,23.30
2022-07-28T15:48:44.899Z,23.30
2022-07-28T15:51:12.412Z,23.30
2022-07-28T15:53:41.299Z,23.40
2022-07-28T15:56:09.007Z,23.40
2022-07-28T15:58:37.039Z,23.40
2022-07-28T16:01:04.312Z,23.50
2022-07-28T16:03:31.416Z,23.60
2022-07-28T16:05:59.138Z,23.60
2022-07-28T16:08:27.056Z,23.70
2022-07-28T16:10:54.842Z,23.80
2022-07-28T16:13:28.663Z,23.90
2022-07-28T16:16:10.266Z,23.90
2022-07-28T16:18:38.653Z,23.90
2022-07-28T16:21:07.511Z,23.90
2022-07-28T16:23:34.941Z,23.90
2022-07-28T16:26:02.974Z,23.90
2022-07-28T16:28:30.016Z,23.90
2022-07-28T16:30:57.244Z,23.80
2022-07-28T16:33:24.732Z,23.90
2022-07-28T16:35:52.363Z,24.10
2022-07-28T16:38:20.379Z,24.20
2022-07-28T16:40:47.505Z,24.40
2022-07-28T16:43:14.586Z,24.70
2022-07-28T16:45:42.485Z,24.70
2022-07-28T16:48:09.680Z,24.70
2022-07-28T16:50:36.813Z,24.60
2022-07-28T16:53:06.722Z,24.50
2022-07-28T16:55:33.996Z,24.40
2022-07-28T16:58:01.118Z,24.30
2022-07-28T17:00:29.802Z,24.40
2022-07-28T17:02:57.404Z,24.50
2022-07-28T17:05:25.258Z,24.50
2022-07-28T17:07:52.618Z,24.50
2022-07-28T17:10:20.335Z,24.60
2022-07-28T17:12:54.087Z,24.70
2022-07-28T17:15:22.451Z,24.60
2022-07-28T17:17:53.380Z,24.60
2022-07-28T17:20:21.241Z,25.00
2022-07-28T17:22:48.752Z,25.20
2022-07-28T17:25:44.542Z,25.70
2022-07-28T17:28:04.914Z,26.20
2022-07-28T17:30:33.560Z,26.80
2022-07-28T17:33:06.275Z,27.20
2022-07-28T17:35:36.203Z,27.90
2022-07-28T17:38:04.938Z,28.60
2022-07-28T17:40:32.059Z,29.20
2022-07-28T17:42:59.293Z,29.40
2022-07-28T17:45:26.598Z,29.30
2022-07-28T17:47:53.950Z,29.50
2022-07-28T17:50:22.051Z,30.10
2022-07-28T17:52:49.339Z,30.60
2022-07-28T17:55:55.744Z,31.10
2022-07-28T17:58:29.544Z,31.30
2022-07-28T18:01:09.606Z,31.70
2022-07-28T18:03:57.935Z,31.90
2022-07-28T18:06:34.127Z,32.20
2022-07-28T18:09:08.147Z,32.50
2022-07-28T18:11:56.568Z,32.30
2022-07-28T18:14:26.971Z,32.30
2022-07-28T18:16:54.329Z,32.50
2022-07-28T18:19:21.909Z,32.60
2022-07-28T18:21:49.300Z,32.40
2022-07-28T18:24:17.027Z,32.20
2022-07-28T18:26:44.427Z,32.00
2022-07-28T18:29:11.472Z,32.00
2022-07-28T18:31:45.811Z,32.00
2022-07-28T18:34:14.124Z,31.80
2022-07-28T18:36:41.543Z,31.70
2022-07-28T18:39:08.790Z,31.50
2022-07-28T18:41:46.184Z,31.20
2022-07-28T18:44:14.326Z,30.50
2022-07-28T18:46:41.753Z,29.40
2022-07-28T18:49:09.038Z,28.40
2022-07-28T18:51:36.410Z,27.50
2022-07-28T18:54:04.113Z,26.80
2022-07-28T18:56:31.940Z,26.20
2022-07-28T18:58:59.732Z,25.60
2022-07-28T19:01:26.876Z,25.10
2022-07-28T19:03:54.050Z,24.70
2022-07-28T19:06:21.646Z,24.30
2022-07-28T19:08:48.922Z,24.10
2022-07-28T19:11:19.850Z,23.90
2022-07-28T19:13:47.801Z,23.60
2022-07-28T19:16:15.080Z,23.50
2022-07-28T19:18:42.196Z,23.30
2022-07-28T19:21:09.432Z,23.00
2022-07-28T19:23:36.866Z,22.80
2022-07-28T19:26:03.990Z,22.60
2022-07-28T19:28:31.162Z,22.30
2022-07-28T19:31:00.096Z,22.10
2022-07-28T19:33:37.513Z,21.90
2022-07-28T19:36:10.938Z,21.80
2022-07-28T19:38:38.284Z,21.70
2022-07-28T19:41:05.333Z,21.60
2022-07-28T19:43:32.448Z,21.50
2022-07-28T19:46:00.380Z,21.40
2022-07-28T19:48:27.752Z,21.30
2022-07-28T19:50:54.897Z,21.20
2022-07-28T19:53:25.116Z,21.00
2022-07-28T19:55:58.839Z,20.90
2022-07-28T19:58:26.071Z,20.80
2022-07-28T20:00:54.143Z,20.70
2022-07-28T20:04:00.725Z,20.60
2022-07-28T20:06:11.975Z,20.50
2022-07-28T20:08:39.870Z,20.40
2022-07-28T20:11:08.527Z,20.30
2022-07-28T20:13:35.661Z,20.20
2022-07-28T20:16:02.989Z,20.10
2022-07-28T20:18:30.101Z,20.00
2022-07-28T20:20:57.713Z,20.00
2022-07-28T20:23:24.777Z,19.90
2022-07-28T20:25:51.975Z,19.80
2022-07-28T20:28:19.331Z,19.70
2022-07-28T20:30:46.485Z,19.60
2022-07-28T20:33:13.592Z,19.60
2022-07-28T20:35:40.820Z,19.50
2022-07-28T20:38:08.537Z,19.40
2022-07-28T20:40:35.816Z,19.30
2022-07-28T20:43:03.051Z,19.30
2022-07-28T20:45:31.929Z,19.20
2022-07-28T20:47:59.249Z,19.10
2022-07-28T20:50:26.534Z,19.10
2022-07-28T20:52:53.620Z,19.00
2022-07-28T20:55:20.974Z,18.90
2022-07-28T20:57:53.098Z,18.80
2022-07-28T21:00:21.159Z,18.70
2022-07-28T21:02:48.291Z,18.60
2022-07-28T21:05:26.460Z,18.60
2022-07-28T21:08:04.654Z,18.40
2022-07-28T21:10:34.067Z,18.30
2022-07-28T21:13:01.305Z,18.20
2022-07-28T21:15:28.560Z,18.10
2022-07-28T21:17:57.293Z,18.00
2022-07-28T21:20:24.952Z,18.00
2022-07-28T21:22:52.292Z,17.90
2022-07-28T21:25:19.860Z,17.80
2022-07-28T21:28:05.845Z,17.70
2022-07-28T21:30:33.108Z,17.60
2022-07-28T21:33:00.304Z,17.60
2022-07-28T21:35:27.549Z,17.50
2022-07-28T21:37:54.581Z,17.40
2022-07-28T21:40:21.687Z,17.30
2022-07-28T21:42:48.760Z,17.20
2022-07-28T21:45:15.923Z,17.10
2022-07-28T21:47:43.041Z,17.10
2022-07-28T21:50:10.941Z,17.00
2022-07-28T21:52:38.628Z,17.00
2022-07-28T21:55:08.273Z,16.90
2022-07-28T21:57:36.009Z,16.80
2022-07-28T22:00:06.039Z,16.80
2022-07-28T22:02:33.138Z,16.80
2022-07-28T22:05:01.278Z,16.70
2022-07-28T22:07:28.525Z,16.60
2022-07-28T22:09:55.594Z,16.50
2022-07-28T22:12:23.125Z,16.50
2022-07-28T22:14:50.563Z,16.40
2022-07-28T22:17:17.714Z,16.40
2022-07-28T22:19:44.818Z,16.30
2022-07-28T22:22:11.898Z,16.20
2022-07-28T22:24:38.991Z,16.20
2022-07-28T22:27:06.368Z,16.10
2022-07-28T22:29:33.693Z,16.10
2022-07-28T22:32:01.400Z,16.00
2022-07-28T22:34:29.966Z,16.00
2022-07-28T22:36:56.995Z,15.90
2022-07-28T22:39:24.056Z,15.90
2022-07-28T22:41:51.144Z,15.80
2022-07-28T22:44:18.577Z,15.80
2022-07-28T22:46:46.316Z,15.80
2022-07-28T22:49:13.557Z,15.70
2022-07-28T22:51:40.841Z,15.70
2022-07-28T22:54:15.925Z,15.60
2022-07-28T22:56:43.458Z,15.60
2022-07-28T22:59:10.730Z,15.50
2022-07-28T23:01:41.576Z,15.50
2022-07-28T23:04:08.652Z,15.50
2022-07-28T23:06:35.782Z,15.40
2022-07-28T23:09:02.958Z,15.40
2022-07-28T23:11:30.085Z,15.30
2022-07-28T23:13:57.145Z,15.30
2022-07-28T23:16:24.292Z,15.20
2022-07-28T23:18:51.374Z,15.20
2022-07-28T23:21:18.436Z,15.10
2022-07-28T23:23:45.579Z,15.10
2022-07-28T23:26:12.631Z,15.10
2022-07-28T23:28:41.270Z,15.00
2022-07-28T23:31:08.601Z,15.00
2022-07-28T23:33:55.290Z,14.90
2022-07-28T23:36:27.308Z,14.90
2022-07-28T23:38:59.122Z,14.90
2022-07-28T23:41:27.419Z,14.80
2022-07-28T23:43:54.803Z,14.80
2022-07-28T23:46:22.266Z,14.70
2022-07-28T23:48:49.657Z,14.70
2022-07-28T23:51:16.883Z,14.70
2022-07-28T23:53:44.309Z,14.70
2022-07-28T23:56:11.402Z,14.60
2022-07-28T23:58:38.445Z,14.60
